createdAt,value
2022-10-18T00:01:05.521Z,95.88
2022-10-18T00:03:34.289Z,96.18
2022-10-18T00:06:05.014Z,96.53
2022-10-18T00:08:32.790Z,96.58
2022-10-18T00:11:02.587Z,96.81
2022-10-18T00:13:30.072Z,96.91
2022-10-18T00:16:00.437Z,96.79
2022-10-18T00:18:28.857Z,96.53
2022-10-18T00:21:06.326Z,96.75
2022-10-18T00:23:35.563Z,96.95
2022-10-18T00:26:23.919Z,97.48
2022-10-18T00:28:56.516Z,97.41
2022-10-18T00:31:33.783Z,97.78
2022-10-18T00:34:04.045Z,97.40
2022-10-18T00:36:35.441Z,97.54
2022-10-18T00:39:05.347Z,97.93
2022-10-18T00:41:35.000Z,97.94
2022-10-18T00:44:28.311Z,97.51
2022-10-18T00:47:09.554Z,97.49
2022-10-18T00:49:40.674Z,97.45
2022-10-18T00:52:10.588Z,97.54
2022-10-18T00:54:42.439Z,97.73
2022-10-18T00:57:10.089Z,97.85
2022-10-18T00:59:38.523Z,97.94
2022-10-18T01:02:07.573Z,97.89
2022-10-18T01:04:35.490Z,97.97
2022-10-18T01:07:21.169Z,97.95
2022-10-18T01:09:56.140Z,98.18
2022-10-18T01:12:55.968Z,98.19
2022-10-18T01:15:49.723Z,98.17
2022-10-18T01:18:37.476Z,98.32
2022-10-18T01:21:40.691Z,98.49
2022-10-18T01:24:45.917Z,98.69
2022-10-18T01:27:19.150Z,98.83
2022-10-18T01:30:18.870Z,98.87
2022-10-18T01:32:54.737Z,98.92
2022-10-18T01:35:35.490Z,98.95
2022-10-18T01:38:07.738Z,98.67
2022-10-18T01:40:37.549Z,99.09
2022-10-18T01:45:39.235Z,98.67
2022-10-18T01:48:07.482Z,99.23
2022-10-18T01:50:37.929Z,99.39
2022-10-18T01:53:05.402Z,99.75
2022-10-18T01:55:43.265Z,99.31
2022-10-18T01:58:16.062Z,99.38
2022-10-18T02:00:50.049Z,99.14
2022-10-18T02:03:25.677Z,98.84
2022-10-18T02:06:01.567Z,99.44
2022-10-18T02:08:34.613Z,99.08
2022-10-18T02:11:06.478Z,99.18
2022-10-18T02:13:40.046Z,99.43
2022-10-18T02:16:11.905Z,99.28
2022-10-18T02:18:45.513Z,99.40
2022-10-18T02:21:17.835Z,99.81
2022-10-18T02:23:47.984Z,99.67
2022-10-18T02:26:18.922Z,99.72
2022-10-18T02:28:47.029Z,99.88
2022-10-18T02:31:22.638Z,99.82
2022-10-18T02:34:21.199Z,99.62
2022-10-18T02:36:56.829Z,99.69
2022-10-18T02:39:30.370Z,99.77
2022-10-18T02:41:58.766Z,100.00
2022-10-18T02:44:27.070Z,100.00
2022-10-18T02:46:57.213Z,100.00
2022-10-18T02:49:24.781Z,100.00
2022-10-18T02:51:52.280Z,100.00
2022-10-18T02:54:19.773Z,100.00
2022-10-18T02:56:47.385Z,100.00
2022-10-18T02:59:15.015Z,100.00
2022-10-18T03:01:42.616Z,100.00
2022-10-18T03:04:12.780Z,100.00
2022-10-18T03:06:40.330Z,100.00
2022-10-18T03:09:12.731Z,100.00
2022-10-18T03:11:40.243Z,100.00
2022-10-18T03:14:10.288Z,100.00
2022-10-18T03:16:37.793Z,100.00
2022-10-18T03:19:05.365Z,100.00
2022-10-18T03:21:32.842Z,100.00
2022-10-18T03:24:00.468Z,100.00
2022-10-18T03:26:27.957Z,100.00
2022-10-18T03:28:55.865Z,100.00
2022-10-18T03:31:23.463Z,100.00
2022-10-18T03:33:51.159Z,100.00
2022-10-18T03:36:18.707Z,100.00
2022-10-18T03:38:46.213Z,100.00
2022-10-18T03:41:13.815Z,100.00
2022-10-18T03:43:41.358Z,100.00
2022-10-18T03:46:08.890Z,100.00
2022-10-18T03:48:36.434Z,100.00
2022-10-18T03:51:03.973Z,100.00
2022-10-18T03:53:31.513Z,100.00
2022-10-18T03:56:01.533Z,100.00
2022-10-18T03:58:29.074Z,100.00
2022-10-18T04:00:56.625Z,100.00
2022-10-18T04:03:24.521Z,100.00
2022-10-18T04:05:52.425Z,100.00
2022-10-18T04:08:20.467Z,100.00
2022-10-18T04:10:50.234Z,100.00
2022-10-18T04:13:19.069Z,100.00
2022-10-18T04:15:48.948Z,100.00
2022-10-18T04:18:17.684Z,100.00
2022-10-18T04:20:45.509Z,100.00
2022-10-18T04:23:13.126Z,100.00
2022-10-18T04:25:45.507Z,100.00
2022-10-18T04:28:13.028Z,100.00
2022-10-18T04:30:40.559Z,100.00
2022-10-18T04:33:08.075Z,100.00
2022-10-18T04:35:35.551Z,100.00
2022-10-18T04:38:03.060Z,100.00
2022-10-18T04:40:30.536Z,100.00
2022-10-18T04:42:58.048Z,100.00
2022-10-18T04:45:25.563Z,100.00
2022-10-18T04:47:53.172Z,100.00
2022-10-18T04:50:20.819Z,100.00
2022-10-18T04:55:21.557Z,100.00
2022-10-18T04:57:49.100Z,100.00
2022-10-18T05:00:16.827Z,100.00
2022-10-18T05:02:46.827Z,100.00
2022-10-18T05:05:16.772Z,100.00
2022-10-18T05:07:44.258Z,100.00
2022-10-18T05:10:11.806Z,100.00
2022-10-18T05:12:39.359Z,100.00
2022-10-18T05:15:08.502Z,100.00
2022-10-18T05:17:36.056Z,100.00
2022-10-18T05:20:09.523Z,100.00
2022-10-18T05:22:37.075Z,100.00
2022-10-18T05:25:04.909Z,100.00
2022-10-18T05:27:32.442Z,100.00
2022-10-18T05:30:01.387Z,100.00
2022-10-18T05:32:37.046Z,100.00
2022-10-18T05:35:04.857Z,100.00
2022-10-18T05:37:32.448Z,100.00
2022-10-18T05:39:59.925Z,100.00
2022-10-18T05:42:27.420Z,100.00
2022-10-18T05:44:56.439Z,100.00
2022-10-18T05:47:23.988Z,100.00
2022-10-18T05:49:51.535Z,100.00
2022-10-18T05:52:19.170Z,100.00
2022-10-18T05:54:46.688Z,100.00
2022-10-18T05:57:16.572Z,100.00
2022-10-18T05:59:47.182Z,100.00
2022-10-18T06:02:16.843Z,100.00
2022-10-18T06:04:44.354Z,100.00
2022-10-18T06:07:17.397Z,100.00
2022-10-18T06:09:46.216Z,100.00
2022-10-18T06:12:13.754Z,100.00
2022-10-18T06:14:41.257Z,100.00
2022-10-18T06:17:09.031Z,100.00
2022-10-18T06:19:38.970Z,100.00
2022-10-18T06:22:06.447Z,100.00
2022-10-18T06:24:36.118Z,100.00
2022-10-18T06:27:08.140Z,100.00
2022-10-18T06:29:40.873Z,100.00
2022-10-18T06:32:09.046Z,100.00
2022-10-18T06:34:36.591Z,97.75
2022-10-18T06:37:06.440Z,95.92
2022-10-18T06:39:33.918Z,94.94
2022-10-18T06:42:01.478Z,93.66
2022-10-18T06:44:28.986Z,91.77
2022-10-18T06:46:56.517Z,89.82
2022-10-18T06:49:26.154Z,89.11
2022-10-18T06:51:54.928Z,87.59
2022-10-18T06:54:22.430Z,86.32
2022-10-18T06:56:49.921Z,85.51
2022-10-18T06:59:18.704Z,84.00
2022-10-18T07:01:46.234Z,84.62
2022-10-18T07:04:13.800Z,83.94
2022-10-18T07:06:41.459Z,83.21
2022-10-18T07:09:08.970Z,82.14
2022-10-18T07:11:38.860Z,81.09
2022-10-18T07:14:08.824Z,80.36
2022-10-18T07:16:37.906Z,79.45
2022-10-18T07:19:05.534Z,77.61
2022-10-18T07:21:35.571Z,77.13
2022-10-18T07:24:03.077Z,73.12
2022-10-18T07:26:33.104Z,63.49
2022-10-18T07:29:13.136Z,63.87
2022-10-18T07:31:41.002Z,59.01
2022-10-18T07:34:11.236Z,57.88
2022-10-18T07:36:38.835Z,56.14
2022-10-18T07:39:08.106Z,53.37
2022-10-18T07:41:36.711Z,53.38
2022-10-18T07:44:05.506Z,51.24
2022-10-18T07:46:34.080Z,49.52
2022-10-18T07:49:01.579Z,46.12
2022-10-18T07:51:30.929Z,46.72
2022-10-18T07:53:58.436Z,46.30
2022-10-18T07:56:28.792Z,45.14
2022-10-18T07:58:57.789Z,43.20
2022-10-18T08:01:25.898Z,42.48
2022-10-18T08:03:56.145Z,43.29
2022-10-18T08:06:26.105Z,41.98
2022-10-18T08:08:53.665Z,42.18
2022-10-18T08:11:25.863Z,40.76
2022-10-18T08:13:54.604Z,38.36
2022-10-18T08:16:25.521Z,36.35
2022-10-18T08:18:53.579Z,37.78
2022-10-18T08:21:22.732Z,35.58
2022-10-18T08:23:50.830Z,37.19
2022-10-18T08:26:20.908Z,34.92
2022-10-18T08:29:10.378Z,37.28
2022-10-18T08:31:39.325Z,39.55
2022-10-18T08:34:07.038Z,36.94
2022-10-18T08:36:34.689Z,36.71
2022-10-18T08:39:02.949Z,37.21
2022-10-18T08:41:55.471Z,36.19
2022-10-18T08:44:29.275Z,35.49
2022-10-18T08:47:02.946Z,35.38
2022-10-18T08:49:45.624Z,36.01
2022-10-18T08:52:53.145Z,35.86
2022-10-18T08:55:54.101Z,34.47
2022-10-18T08:58:26.918Z,36.34
2022-10-18T09:01:31.687Z,35.38
2022-10-18T09:04:05.243Z,33.94
2022-10-18T09:06:56.629Z,33.57
2022-10-18T09:09:27.257Z,33.94
2022-10-18T09:12:02.114Z,33.11
2022-10-18T09:14:38.987Z,33.38
2022-10-18T09:17:18.465Z,33.10
2022-10-18T09:22:55.475Z,33.18
2022-10-18T09:25:26.751Z,33.48
2022-10-18T09:28:31.000Z,32.84
2022-10-18T09:31:08.861Z,31.91
2022-10-18T09:33:39.331Z,31.73
2022-10-18T09:36:12.126Z,32.13
2022-10-18T09:38:57.207Z,32.09
2022-10-18T09:41:35.070Z,31.30
2022-10-18T09:44:07.483Z,31.36
2022-10-18T09:46:40.135Z,31.20
2022-10-18T09:49:15.610Z,31.26
2022-10-18T09:51:45.667Z,30.40
2022-10-18T09:54:34.969Z,30.64
2022-10-18T09:57:08.652Z,29.87
2022-10-18T09:59:44.245Z,31.24
2022-10-18T10:02:21.480Z,30.45
2022-10-18T10:04:54.159Z,29.83
2022-10-18T10:07:31.057Z,30.66
2022-10-18T10:10:24.357Z,30.37
2022-10-18T10:13:07.196Z,30.91
2022-10-18T10:15:38.154Z,30.64
2022-10-18T10:18:19.767Z,29.88
2022-10-18T10:20:53.911Z,28.91
2022-10-18T10:23:29.214Z,30.21
2022-10-18T10:26:02.385Z,29.59
2022-10-18T10:28:34.598Z,29.98
2022-10-18T10:31:30.197Z,30.58
2022-10-18T10:34:15.788Z,30.46
2022-10-18T10:36:54.284Z,30.45
2022-10-18T10:39:24.369Z,30.68
2022-10-18T10:41:57.992Z,29.63
2022-10-18T10:44:30.353Z,30.73
2022-10-18T10:46:58.259Z,30.48
2022-10-18T10:49:41.454Z,30.41
2022-10-18T10:52:29.594Z,30.20
2022-10-18T10:55:06.158Z,29.17
2022-10-18T10:57:39.648Z,29.65
2022-10-18T11:00:07.620Z,29.74
2022-10-18T11:02:38.034Z,31.08
2022-10-18T11:05:29.887Z,30.69
2022-10-18T11:08:03.997Z,30.89
2022-10-18T11:10:44.602Z,30.13
2022-10-18T11:13:29.466Z,30.48
2022-10-18T11:16:17.536Z,30.42
2022-10-18T11:18:49.059Z,30.46
2022-10-18T11:21:30.832Z,29.77
2022-10-18T11:24:03.078Z,29.47
2022-10-18T11:27:15.870Z,29.68
2022-10-18T11:30:23.781Z,30.14
2022-10-18T11:33:12.536Z,30.49
2022-10-18T11:35:50.709Z,29.92
2022-10-18T11:38:53.722Z,29.25
2022-10-18T11:41:39.882Z,29.31
2022-10-18T11:44:38.269Z,29.19
2022-10-18T11:47:24.408Z,29.31
2022-10-18T11:49:55.023Z,28.46
2022-10-18T11:52:28.851Z,29.31
2022-10-18T11:55:17.920Z,29.21
2022-10-18T11:58:04.321Z,28.61
2022-10-18T12:00:35.021Z,28.67
2022-10-18T12:03:23.586Z,28.31
2022-10-18T12:05:53.707Z,28.22
2022-10-18T12:08:24.016Z,28.77
2022-10-18T12:11:05.111Z,29.21
2022-10-18T12:13:53.583Z,29.63
2022-10-18T12:16:45.574Z,29.14
2022-10-18T12:19:26.993Z,29.09
2022-10-18T12:21:58.649Z,29.31
2022-10-18T12:24:29.508Z,29.93
2022-10-18T12:27:04.048Z,29.54
2022-10-18T12:29:45.394Z,29.96
2022-10-18T12:32:19.518Z,30.06
2022-10-18T12:35:01.494Z,29.93
2022-10-18T12:37:50.613Z,29.96
2022-10-18T12:40:42.569Z,30.26
2022-10-18T12:43:20.034Z,30.00
2022-10-18T12:46:02.267Z,29.43
2022-10-18T12:48:39.115Z,29.90
2022-10-18T12:51:21.703Z,30.28
2022-10-18T12:54:14.588Z,30.28
2022-10-18T12:56:44.017Z,30.64
2022-10-18T12:59:23.350Z,30.47
2022-10-18T13:01:53.899Z,31.65
2022-10-18T13:04:32.380Z,30.97
2022-10-18T13:06:59.912Z,31.64
2022-10-18T13:09:30.517Z,31.50
2022-10-18T13:12:10.075Z,31.56
2022-10-18T13:14:48.288Z,32.25
2022-10-18T13:17:48.492Z,32.53
2022-10-18T13:20:44.071Z,33.12
2022-10-18T13:23:39.709Z,33.93
2022-10-18T13:26:10.289Z,35.19
2022-10-18T13:29:04.376Z,35.11
2022-10-18T13:31:56.699Z,35.37
2022-10-18T13:34:32.956Z,36.19
2022-10-18T13:37:05.151Z,36.36
2022-10-18T13:39:34.182Z,36.86
2022-10-18T13:42:01.681Z,36.72
2022-10-18T13:44:30.561Z,36.81
2022-10-18T13:47:00.689Z,37.36
2022-10-18T13:49:40.279Z,37.29
2022-10-18T13:52:25.774Z,37.37
2022-10-18T13:55:14.743Z,37.56
2022-10-18T13:57:54.470Z,37.52
2022-10-18T14:00:36.991Z,37.99
2022-10-18T14:03:56.376Z,38.06
2022-10-18T14:06:47.411Z,38.45
2022-10-18T14:09:26.413Z,39.56
2022-10-18T14:12:27.424Z,38.48
2022-10-18T14:15:09.005Z,38.66
2022-10-18T14:17:43.284Z,38.61
2022-10-18T14:20:28.727Z,39.29
2022-10-18T14:23:09.429Z,39.90
2022-10-18T14:25:40.383Z,40.26
2022-10-18T14:28:17.585Z,39.61
2022-10-18T14:30:55.527Z,39.90
2022-10-18T14:33:47.434Z,39.79
2022-10-18T14:36:16.354Z,40.97
2022-10-18T14:38:55.080Z,41.16
2022-10-18T14:41:28.567Z,40.91
2022-10-18T14:44:18.499Z,41.87
2022-10-18T14:46:54.601Z,43.72
2022-10-18T14:49:22.951Z,41.25
2022-10-18T14:51:56.973Z,41.15
2022-10-18T14:54:31.887Z,41.44
2022-10-18T14:57:01.556Z,42.80
2022-10-18T14:59:31.738Z,45.04
2022-10-18T15:02:06.082Z,46.92
2022-10-18T15:04:33.704Z,48.84
2022-10-18T15:07:06.992Z,49.11
2022-10-18T15:09:36.906Z,48.32
2022-10-18T15:12:06.816Z,51.57
2022-10-18T15:14:35.814Z,52.40
2022-10-18T15:17:15.595Z,53.44
2022-10-18T15:19:57.671Z,55.88
2022-10-18T15:22:32.406Z,58.57
2022-10-18T15:25:06.516Z,57.11
2022-10-18T15:27:37.896Z,58.71
2022-10-18T15:30:43.755Z,59.23
2022-10-18T15:33:23.351Z,61.61
2022-10-18T15:35:55.270Z,61.79
2022-10-18T15:38:28.384Z,62.38
2022-10-18T15:40:56.566Z,63.67
2022-10-18T15:43:24.151Z,63.40
2022-10-18T15:46:00.022Z,64.68
2022-10-18T15:48:35.894Z,64.26
2022-10-18T15:51:06.289Z,65.64
2022-10-18T15:53:51.157Z,66.41
2022-10-18T15:56:33.965Z,67.41
2022-10-18T15:59:05.530Z,67.69
2022-10-18T16:01:39.779Z,67.57
2022-10-18T16:04:42.041Z,68.70
2022-10-18T16:07:15.452Z,70.09
2022-10-18T16:09:44.337Z,69.45
2022-10-18T16:12:11.903Z,70.10
2022-10-18T16:14:39.432Z,70.24
2022-10-18T16:17:08.066Z,70.53
2022-10-18T16:19:38.073Z,70.22
2022-10-18T16:22:07.824Z,70.96
2022-10-18T16:24:35.332Z,71.83
2022-10-18T16:27:02.860Z,72.07
2022-10-18T16:29:33.443Z,72.76
2022-10-18T16:32:01.256Z,72.81
2022-10-18T16:34:28.854Z,73.35
2022-10-18T16:36:56.783Z,73.15
2022-10-18T16:39:26.716Z,73.65
2022-10-18T16:41:54.245Z,73.82
2022-10-18T16:44:21.792Z,73.83
2022-10-18T16:46:52.423Z,74.34
2022-10-18T16:49:24.895Z,74.47
2022-10-18T16:51:53.685Z,74.56
2022-10-18T16:54:21.658Z,74.41
2022-10-18T16:56:50.295Z,74.87
2022-10-18T16:59:30.213Z,75.32
2022-10-18T17:01:58.388Z,75.56
2022-10-18T17:04:26.015Z,75.31
2022-10-18T17:06:58.311Z,76.22
2022-10-18T17:09:26.088Z,75.84
2022-10-18T17:11:53.785Z,75.66
2022-10-18T17:14:21.454Z,75.58
2022-10-18T17:16:53.098Z,75.79
2022-10-18T17:19:23.781Z,76.17
2022-10-18T17:21:51.313Z,76.43
2022-10-18T17:24:18.822Z,76.62
2022-10-18T17:26:46.408Z,76.56
2022-10-18T17:29:13.974Z,76.24
2022-10-18T17:31:41.622Z,76.50
2022-10-18T17:34:09.145Z,76.96
2022-10-18T17:36:36.822Z,76.67
2022-10-18T17:39:04.775Z,76.67
2022-10-18T17:41:32.315Z,77.28
2022-10-18T17:43:59.853Z,76.73
2022-10-18T17:46:27.375Z,77.16
2022-10-18T17:48:54.989Z,77.07
2022-10-18T17:51:23.418Z,77.19
2022-10-18T17:53:51.006Z,77.15
2022-10-18T17:56:18.635Z,77.18
2022-10-18T17:58:46.993Z,77.62
2022-10-18T18:01:23.057Z,77.36
2022-10-18T18:03:50.744Z,77.53
2022-10-18T18:06:23.941Z,77.41
2022-10-18T18:08:51.501Z,77.97
2022-10-18T18:11:21.613Z,78.00
2022-10-18T18:13:51.532Z,78.61
2022-10-18T18:16:21.937Z,78.89
2022-10-18T18:18:52.111Z,78.24
2022-10-18T18:21:20.379Z,78.94
2022-10-18T18:23:48.271Z,78.58
2022-10-18T18:26:18.570Z,78.77
2022-10-18T18:28:46.429Z,79.41
2022-10-18T18:31:17.876Z,79.75
2022-10-18T18:33:46.167Z,79.95
2022-10-18T18:36:13.846Z,79.68
2022-10-18T18:38:43.425Z,79.91
2022-10-18T18:41:19.602Z,79.79
2022-10-18T18:44:00.182Z,80.60
2022-10-18T18:46:30.318Z,81.15
2022-10-18T18:48:58.793Z,80.82
2022-10-18T18:51:26.523Z,81.27
2022-10-18T18:53:54.695Z,81.10
2022-10-18T18:56:26.559Z,81.40
2022-10-18T18:58:54.601Z,81.65
2022-10-18T19:01:33.325Z,81.98
2022-10-18T19:04:01.114Z,81.74
2022-10-18T19:06:43.959Z,81.54
2022-10-18T19:09:20.510Z,81.77
2022-10-18T19:11:49.246Z,82.02
2022-10-18T19:14:17.681Z,82.38
2022-10-18T19:16:50.561Z,82.23
2022-10-18T19:19:23.670Z,82.42
2022-10-18T19:21:56.288Z,82.86
2022-10-18T19:24:25.453Z,82.76
2022-10-18T19:26:55.990Z,83.40
2022-10-18T19:29:27.993Z,83.61
2022-10-18T19:32:00.355Z,83.41
2022-10-18T19:34:32.107Z,83.36
2022-10-18T19:36:59.754Z,83.50
2022-10-18T19:39:32.620Z,83.41
2022-10-18T19:42:04.129Z,84.07
2022-10-18T19:44:33.773Z,84.40
2022-10-18T19:47:01.743Z,84.48
2022-10-18T19:49:29.754Z,84.54
2022-10-18T19:51:58.251Z,83.81
2022-10-18T19:54:26.883Z,84.64
2022-10-18T19:56:54.460Z,84.72
2022-10-18T19:59:25.248Z,84.76
2022-10-18T20:01:52.799Z,84.59
2022-10-18T20:04:20.471Z,85.20
2022-10-18T20:06:48.018Z,85.09
2022-10-18T20:09:19.402Z,85.33
2022-10-18T20:11:48.407Z,85.43
2022-10-18T20:14:15.976Z,85.78
2022-10-18T20:16:43.512Z,85.41
2022-10-18T20:19:11.705Z,85.31
2022-10-18T20:21:39.946Z,84.90
2022-10-18T20:24:09.311Z,84.94
2022-10-18T20:26:36.866Z,85.10
2022-10-18T20:29:05.218Z,85.40
2022-10-18T20:31:39.052Z,86.21
2022-10-18T20:34:11.904Z,86.32
2022-10-18T20:36:40.014Z,86.72
2022-10-18T20:39:07.934Z,86.56
2022-10-18T20:41:38.644Z,86.59
2022-10-18T20:44:13.326Z,86.15
2022-10-18T20:46:41.539Z,86.60
2022-10-18T20:49:11.512Z,86.26
2022-10-18T20:51:39.018Z,86.55
2022-10-18T20:54:10.571Z,86.14
2022-10-18T20:56:40.859Z,86.17
2022-10-18T20:59:10.094Z,86.38
2022-10-18T21:01:40.890Z,86.21
2022-10-18T21:04:11.520Z,86.41
2022-10-18T21:06:41.810Z,87.20
2022-10-18T21:09:15.624Z,87.05
2022-10-18T21:11:49.382Z,87.21
2022-10-18T21:14:20.059Z,87.39
2022-10-18T21:16:51.647Z,87.29
2022-10-18T21:19:27.303Z,87.24
2022-10-18T21:21:57.349Z,87.57
2022-10-18T21:24:26.547Z,87.84
2022-10-18T21:26:54.582Z,87.69
2022-10-18T21:29:23.488Z,87.68
2022-10-18T21:31:55.254Z,88.03
2022-10-18T21:34:22.898Z,87.44
2022-10-18T21:36:50.529Z,87.80
2022-10-18T21:39:20.799Z,88.04
2022-10-18T21:41:48.663Z,88.35
2022-10-18T21:44:17.356Z,88.64
2022-10-18T21:46:46.623Z,88.21
2022-10-18T21:49:14.876Z,88.44
2022-10-18T21:51:45.328Z,88.24
2022-10-18T21:54:14.881Z,88.72
2022-10-18T21:56:45.541Z,88.18
2022-10-18T21:59:14.463Z,88.64
2022-10-18T22:01:45.083Z,88.93
2022-10-18T22:04:21.481Z,88.92
2022-10-18T22:06:49.286Z,88.70
2022-10-18T22:09:17.522Z,88.37
2022-10-18T22:11:52.372Z,88.34
2022-10-18T22:14:20.468Z,88.49
2022-10-18T22:16:48.075Z,88.12
2022-10-18T22:19:15.758Z,87.90
2022-10-18T22:21:43.358Z,88.10
2022-10-18T22:24:11.065Z,87.85
2022-10-18T22:26:41.626Z,87.53
2022-10-18T22:29:20.994Z,87.15
2022-10-18T22:31:50.940Z,86.94
2022-10-18T22:34:21.762Z,87.35
2022-10-18T22:36:49.699Z,86.86
2022-10-18T22:39:18.728Z,86.89
2022-10-18T22:41:52.123Z,86.79
2022-10-18T22:44:19.880Z,86.53
2022-10-18T22:46:47.379Z,86.39
2022-10-18T22:49:14.986Z,86.64
2022-10-18T22:51:43.052Z,86.86
2022-10-18T22:54:10.546Z,86.82
2022-10-18T22:56:38.133Z,86.70
2022-10-18T22:59:05.696Z,86.66
2022-10-18T23:01:33.205Z,86.36
2022-10-18T23:04:05.650Z,86.61
2022-10-18T23:06:35.831Z,86.35
2022-10-18T23:09:07.032Z,86.60
2022-10-18T23:11:35.762Z,86.35
2022-10-18T23:14:04.550Z,86.17
2022-10-18T23:16:32.474Z,86.16
2022-10-18T23:19:02.591Z,86.53
2022-10-18T23:21:30.401Z,86.29
2022-10-18T23:23:58.304Z,86.32
2022-10-18T23:26:28.402Z,86.16
2022-10-18T23:28:56.479Z,85.99
2022-10-18T23:31:29.387Z,86.00
2022-10-18T23:33:59.444Z,85.50
2022-10-18T23:36:27.438Z,85.64
2022-10-18T23:38:55.413Z,86.27
2022-10-18T23:41:23.462Z,86.43
2022-10-18T23:43:51.711Z,86.74
2022-10-18T23:46:19.928Z,86.77
2022-10-18T23:48:48.277Z,86.92
2022-10-18T23:51:16.871Z,86.91
2022-10-18T23:53:44.521Z,87.16
2022-10-18T23:56:17.487Z,87.46
2022-10-18T23:58:48.112Z,87.63
